Central Nebraska Regional Airport Grand Island US
ICAO: KGRI
IATA: GRI
Category: Medium
Scheduled Services: Yes

Elevation: 1847 ft
TransAlt. 18000 ft.

Airport Communications:
ATIS:127.4
CLNC DEL:121.9
MINNEAPOLIS CNTR:119.4
CTAF:118.2
GND:121.9
ARNG OPS:38
COLUMBUS RDO:122.45
GRAND ISLAND TWR:118.2
UNICOM:122.95

KGRI Zoom In..

Runways:

(A) RW 13 length 6608 ft width 100 ft
---- / hdg 128

(B) RW 17 length 7002 ft width 150 ft
---- / hdg 173

(C) RW 31 length 6608 ft width 100 ft
---- / hdg 308

(D) RW 35 length 7002 ft width 150 ft
ILS 111.90 / hdg 353

Location; KGRI
Day. 27 / Time. 06.53 Zulu
* Altimeter: 30.17
* Temperature: -03° c. -26.6°f.
* Wind from: 290° Speed 04 kn.
Dewpoint: -05° c.
Visibility: 6 Statute Miles.
Clouds: Clear (automated report).
Conditions: Mist.

KGRI 270653Z AUTO 29004KT 6SM BR CLR M03/M05 A3017 RMK AO2 SLP236 I1000 T10281050 $

Going to: --> -->


Wind From 290°
Speed 04 kn.

 
 
jpsmedia worldairports.se 2020   terms of use